sensor_id;sensor_type;location;lat;lon;timestamp;P1;durP1;ratioP1;P2;durP2;ratioP2
22005;SDS011;11167;46.988;15.470;2023-08-06T00:00:14;1.50;;;0.50;;
22005;SDS011;11167;46.988;15.470;2023-08-06T00:02:16;2.08;;;0.45;;
22005;SDS011;11167;46.988;15.470;2023-08-06T00:04:17;0.60;;;0.40;;
22005;SDS011;11167;46.988;15.470;2023-08-06T00:06:18;1.02;;;0.33;;
22005;SDS011;11167;46.988;15.470;2023-08-06T00:08:19;2.37;;;0.40;;
22005;SDS011;11167;46.988;15.470;2023-08-06T00:10:20;0.88;;;0.50;;
22005;SDS011;11167;46.988;15.470;2023-08-06T00:12:21;1.05;;;0.50;;
22005;SDS011;11167;46.988;15.470;2023-08-06T00:14:22;0.35;;;0.30;;
22005;SDS011;11167;46.988;15.470;2023-08-06T00:16:23;1.12;;;0.50;;
22005;SDS011;11167;46.988;15.470;2023-08-06T00:18:24;0.95;;;0.53;;
22005;SDS011;11167;46.988;15.470;2023-08-06T00:20:25;0.30;;;0.30;;
22005;SDS011;11167;46.988;15.470;2023-08-06T00:22:26;0.90;;;0.50;;
22005;SDS011;11167;46.988;15.470;2023-08-06T00:24:27;0.70;;;0.50;;
22005;SDS011;11167;46.988;15.470;2023-08-06T00:26:28;0.40;;;0.40;;
22005;SDS011;11167;46.988;15.470;2023-08-06T00:28:29;1.40;;;0.57;;
22005;SDS011;11167;46.988;15.470;2023-08-06T00:30:31;0.37;;;0.33;;
22005;SDS011;11167;46.988;15.470;2023-08-06T00:32:32;0.95;;;0.50;;
22005;SDS011;11167;46.988;15.470;2023-08-06T00:34:34;0.65;;;0.60;;
22005;SDS011;11167;46.988;15.470;2023-08-06T00:36:35;0.42;;;0.40;;
22005;SDS011;11167;46.988;15.470;2023-08-06T00:38:36;1.20;;;0.45;;
22005;SDS011;11167;46.988;15.470;2023-08-06T00:40:38;0.85;;;0.30;;
22005;SDS011;11167;46.988;15.470;2023-08-06T00:42:39;0.37;;;0.20;;
22005;SDS011;11167;46.988;15.470;2023-08-06T00:44:40;0.25;;;0.20;;
22005;SDS011;11167;46.988;15.470;2023-08-06T00:46:41;0.47;;;0.30;;
22005;SDS011;11167;46.988;15.470;2023-08-06T00:48:42;0.68;;;0.40;;
22005;SDS011;11167;46.988;15.470;2023-08-06T00:50:43;0.40;;;0.40;;
22005;SDS011;11167;46.988;15.470;2023-08-06T00:52:44;0.75;;;0.45;;
22005;SDS011;11167;46.988;15.470;2023-08-06T00:54:45;0.80;;;0.40;;
22005;SDS011;11167;46.988;15.470;2023-08-06T00:56:46;0.40;;;0.30;;
22005;SDS011;11167;46.988;15.470;2023-08-06T00:58:48;0.85;;;0.50;;
22005;SDS011;11167;46.988;15.470;2023-08-06T01:00:49;0.30;;;0.30;;
22005;SDS011;11167;46.988;15.470;2023-08-06T01:02:51;0.30;;;0.30;;
22005;SDS011;11167;46.988;15.470;2023-08-06T01:04:53;0.40;;;0.40;;
22005;SDS011;11167;46.988;15.470;2023-08-06T01:07:08;0.30;;;0.30;;
22005;SDS011;11167;46.988;15.470;2023-08-06T01:09:17;0.35;;;0.35;;
22005;SDS011;11167;46.988;15.470;2023-08-06T01:11:38;0.93;;;0.30;;
22005;SDS011;11167;46.988;15.470;2023-08-06T01:13:47;0.53;;;0.42;;
22005;SDS011;11167;46.988;15.470;2023-08-06T01:15:55;0.33;;;0.33;;
22005;SDS011;11167;46.988;15.470;2023-08-06T01:18:01;0.82;;;0.50;;
22005;SDS011;11167;46.988;15.470;2023-08-06T01:20:04;0.30;;;0.30;;
22005;SDS011;11167;46.988;15.470;2023-08-06T01:22:06;0.20;;;0.20;;
22005;SDS011;11167;46.988;15.470;2023-08-06T01:24:07;0.40;;;0.40;;
22005;SDS011;11167;46.988;15.470;2023-08-06T01:26:26;0.20;;;0.17;;
22005;SDS011;11167;46.988;15.470;2023-08-06T01:30:47;0.23;;;0.20;;
22005;SDS011;11167;46.988;15.470;2023-08-06T01:32:51;0.30;;;0.30;;
22005;SDS011;11167;46.988;15.470;2023-08-06T01:34:59;0.20;;;0.20;;
22005;SDS011;11167;46.988;15.470;2023-08-06T01:37:01;0.20;;;0.20;;
22005;SDS011;11167;46.988;15.470;2023-08-06T01:39:04;0.40;;;0.30;;
22005;SDS011;11167;46.988;15.470;2023-08-06T01:41:06;0.30;;;0.25;;
22005;SDS011;11167;46.988;15.470;2023-08-06T01:43:07;0.40;;;0.30;;
22005;SDS011;11167;46.988;15.470;2023-08-06T01:45:09;0.40;;;0.30;;
22005;SDS011;11167;46.988;15.470;2023-08-06T01:47:10;0.20;;;0.20;;
22005;SDS011;11167;46.988;15.470;2023-08-06T01:49:12;0.40;;;0.20;;
22005;SDS011;11167;46.988;15.470;2023-08-06T01:51:13;0.40;;;0.28;;
22005;SDS011;11167;46.988;15.470;2023-08-06T01:53:14;1.70;;;0.28;;
22005;SDS011;11167;46.988;15.470;2023-08-06T01:55:15;0.50;;;0.30;;
22005;SDS011;11167;46.988;15.470;2023-08-06T01:57:16;0.33;;;0.30;;
22005;SDS011;11167;46.988;15.470;2023-08-06T01:59:17;0.20;;;0.20;;
22005;SDS011;11167;46.988;15.470;2023-08-06T02:01:18;0.25;;;0.17;;
22005;SDS011;11167;46.988;15.470;2023-08-06T02:03:19;0.33;;;0.20;;
22005;SDS011;11167;46.988;15.470;2023-08-06T02:05:20;0.17;;;0.17;;
22005;SDS011;11167;46.988;15.470;2023-08-06T02:07:21;0.25;;;0.20;;
22005;SDS011;11167;46.988;15.470;2023-08-06T02:09:22;0.23;;;0.20;;
22005;SDS011;11167;46.988;15.470;2023-08-06T02:11:23;0.20;;;0.20;;
22005;SDS011;11167;46.988;15.470;2023-08-06T02:13:24;0.17;;;0.15;;
22005;SDS011;11167;46.988;15.470;2023-08-06T02:15:25;0.57;;;0.20;;
22005;SDS011;11167;46.988;15.470;2023-08-06T02:17:26;0.20;;;0.20;;
22005;SDS011;11167;46.988;15.470;2023-08-06T02:19:28;0.37;;;0.20;;
22005;SDS011;11167;46.988;15.470;2023-08-06T02:21:29;0.20;;;0.15;;
22005;SDS011;11167;46.988;15.470;2023-08-06T02:23:30;0.17;;;0.10;;
22005;SDS011;11167;46.988;15.470;2023-08-06T02:25:31;0.20;;;0.20;;
22005;SDS011;11167;46.988;15.470;2023-08-06T02:27:32;0.20;;;0.20;;
22005;SDS011;11167;46.988;15.470;2023-08-06T02:29:33;0.75;;;0.20;;
22005;SDS011;11167;46.988;15.470;2023-08-06T02:31:34;0.10;;;0.10;;
22005;SDS011;11167;46.988;15.470;2023-08-06T02:33:35;0.20;;;0.20;;
22005;SDS011;11167;46.988;15.470;2023-08-06T02:35:36;0.15;;;0.15;;
22005;SDS011;11167;46.988;15.470;2023-08-06T02:37:37;0.60;;;0.30;;
22005;SDS011;11167;46.988;15.470;2023-08-06T02:39:38;0.23;;;0.20;;
22005;SDS011;11167;46.988;15.470;2023-08-06T02:41:40;0.15;;;0.10;;
22005;SDS011;11167;46.988;15.470;2023-08-06T02:43:41;0.20;;;0.20;;
22005;SDS011;11167;46.988;15.470;2023-08-06T02:45:42;0.60;;;0.30;;
22005;SDS011;11167;46.988;15.470;2023-08-06T02:47:43;0.37;;;0.30;;
22005;SDS011;11167;46.988;15.470;2023-08-06T02:49:44;1.25;;;0.23;;
22005;SDS011;11167;46.988;15.470;2023-08-06T02:51:45;0.17;;;0.17;;
22005;SDS011;11167;46.988;15.470;2023-08-06T02:53:47;0.20;;;0.20;;
22005;SDS011;11167;46.988;15.470;2023-08-06T02:55:50;0.40;;;0.28;;
22005;SDS011;11167;46.988;15.470;2023-08-06T02:57:51;0.15;;;0.10;;
22005;SDS011;11167;46.988;15.470;2023-08-06T02:59:52;0.25;;;0.25;;
22005;SDS011;11167;46.988;15.470;2023-08-06T03:01:53;0.20;;;0.20;;
22005;SDS011;11167;46.988;15.470;2023-08-06T03:03:54;0.20;;;0.20;;
22005;SDS011;11167;46.988;15.470;2023-08-06T03:05:55;0.20;;;0.20;;
22005;SDS011;11167;46.988;15.470;2023-08-06T03:07:56;0.20;;;0.20;;
22005;SDS011;11167;46.988;15.470;2023-08-06T03:09:57;0.23;;;0.20;;
22005;SDS011;11167;46.988;15.470;2023-08-06T03:11:58;0.90;;;0.30;;
22005;SDS011;11167;46.988;15.470;2023-08-06T03:13:59;0.20;;;0.20;;
22005;SDS011;11167;46.988;15.470;2023-08-06T03:16:00;0.13;;;0.13;;
22005;SDS011;11167;46.988;15.470;2023-08-06T03:18:02;0.28;;;0.20;;
22005;SDS011;11167;46.988;15.470;2023-08-06T03:20:03;0.53;;;0.30;;
22005;SDS011;11167;46.988;15.470;2023-08-06T03:22:05;0.20;;;0.20;;
22005;SDS011;11167;46.988;15.470;2023-08-06T03:24:07;0.20;;;0.20;;
22005;SDS011;11167;46.988;15.470;2023-08-06T03:26:08;0.20;;;0.20;;
22005;SDS011;11167;46.988;15.470;2023-08-06T03:28:09;0.20;;;0.20;;
22005;SDS011;11167;46.988;15.470;2023-08-06T03:30:10;0.53;;;0.15;;
22005;SDS011;11167;46.988;15.470;2023-08-06T03:32:11;0.60;;;0.30;;
22005;SDS011;11167;46.988;15.470;2023-08-06T03:34:12;0.45;;;0.20;;
22005;SDS011;11167;46.988;15.470;2023-08-06T03:36:13;0.40;;;0.40;;
22005;SDS011;11167;46.988;15.470;2023-08-06T03:38:14;0.45;;;0.42;;
22005;SDS011;11167;46.988;15.470;2023-08-06T03:40:16;0.70;;;0.40;;
22005;SDS011;11167;46.988;15.470;2023-08-06T03:42:17;0.10;;;0.10;;
22005;SDS011;11167;46.988;15.470;2023-08-06T03:44:18;0.88;;;0.53;;
22005;SDS011;11167;46.988;15.470;2023-08-06T03:46:19;0.62;;;0.50;;
22005;SDS011;11167;46.988;15.470;2023-08-06T03:48:20;0.42;;;0.40;;
22005;SDS011;11167;46.988;15.470;2023-08-06T03:50:22;0.50;;;0.50;;
22005;SDS011;11167;46.988;15.470;2023-08-06T03:52:23;1.15;;;0.62;;
22005;SDS011;11167;46.988;15.470;2023-08-06T03:54:24;0.40;;;0.40;;
22005;SDS011;11167;46.988;15.470;2023-08-06T03:56:25;0.40;;;0.40;;
22005;SDS011;11167;46.988;15.470;2023-08-06T03:58:26;0.53;;;0.50;;
22005;SDS011;11167;46.988;15.470;2023-08-06T04:00:27;0.60;;;0.53;;
22005;SDS011;11167;46.988;15.470;2023-08-06T04:02:28;0.45;;;0.45;;
22005;SDS011;11167;46.988;15.470;2023-08-06T04:04:29;0.47;;;0.40;;
22005;SDS011;11167;46.988;15.470;2023-08-06T04:06:30;0.30;;;0.25;;
22005;SDS011;11167;46.988;15.470;2023-08-06T04:08:31;2.25;;;0.50;;
22005;SDS011;11167;46.988;15.470;2023-08-06T04:10:33;0.50;;;0.33;;
22005;SDS011;11167;46.988;15.470;2023-08-06T04:12:34;2.05;;;0.40;;
22005;SDS011;11167;46.988;15.470;2023-08-06T04:14:37;0.37;;;0.20;;
22005;SDS011;11167;46.988;15.470;2023-08-06T04:16:38;0.30;;;0.30;;
22005;SDS011;11167;46.988;15.470;2023-08-06T04:18:40;0.65;;;0.40;;
22005;SDS011;11167;46.988;15.470;2023-08-06T04:20:44;0.30;;;0.30;;
22005;SDS011;11167;46.988;15.470;2023-08-06T04:22:46;0.30;;;0.30;;
22005;SDS011;11167;46.988;15.470;2023-08-06T04:24:47;0.62;;;0.30;;
22005;SDS011;11167;46.988;15.470;2023-08-06T04:26:48;0.35;;;0.30;;
22005;SDS011;11167;46.988;15.470;2023-08-06T04:28:49;0.30;;;0.20;;
22005;SDS011;11167;46.988;15.470;2023-08-06T04:30:50;0.33;;;0.33;;
22005;SDS011;11167;46.988;15.470;2023-08-06T04:32:53;0.20;;;0.20;;
22005;SDS011;11167;46.988;15.470;2023-08-06T04:34:55;0.80;;;0.30;;
22005;SDS011;11167;46.988;15.470;2023-08-06T04:36:57;0.40;;;0.33;;
22005;SDS011;11167;46.988;15.470;2023-08-06T04:38:58;0.23;;;0.23;;
22005;SDS011;11167;46.988;15.470;2023-08-06T04:40:59;0.30;;;0.30;;
22005;SDS011;11167;46.988;15.470;2023-08-06T04:43:05;0.40;;;0.30;;
22005;SDS011;11167;46.988;15.470;2023-08-06T04:45:06;0.28;;;0.23;;
22005;SDS011;11167;46.988;15.470;2023-08-06T04:47:08;0.65;;;0.23;;
22005;SDS011;11167;46.988;15.470;2023-08-06T04:49:09;0.20;;;0.20;;
22005;SDS011;11167;46.988;15.470;2023-08-06T04:51:10;0.20;;;0.20;;
22005;SDS011;11167;46.988;15.470;2023-08-06T04:53:11;0.20;;;0.20;;
22005;SDS011;11167;46.988;15.470;2023-08-06T04:55:12;0.10;;;0.10;;
22005;SDS011;11167;46.988;15.470;2023-08-06T04:57:13;0.42;;;0.25;;
22005;SDS011;11167;46.988;15.470;2023-08-06T04:59:15;0.10;;;0.10;;
22005;SDS011;11167;46.988;15.470;2023-08-06T05:01:16;0.50;;;0.20;;
22005;SDS011;11167;46.988;15.470;2023-08-06T05:03:17;0.25;;;0.20;;
22005;SDS011;11167;46.988;15.470;2023-08-06T05:05:18;0.30;;;0.30;;
22005;SDS011;11167;46.988;15.470;2023-08-06T05:07:19;0.30;;;0.30;;
22005;SDS011;11167;46.988;15.470;2023-08-06T05:09:20;0.33;;;0.30;;
22005;SDS011;11167;46.988;15.470;2023-08-06T05:11:21;0.80;;;0.30;;
22005;SDS011;11167;46.988;15.470;2023-08-06T05:13:22;1.22;;;0.47;;
22005;SDS011;11167;46.988;15.470;2023-08-06T05:15:23;0.30;;;0.30;;
22005;SDS011;11167;46.988;15.470;2023-08-06T05:17:26;0.50;;;0.30;;
22005;SDS011;11167;46.988;15.470;2023-08-06T05:19:28;0.30;;;0.30;;
22005;SDS011;11167;46.988;15.470;2023-08-06T05:21:29;0.20;;;0.20;;
22005;SDS011;11167;46.988;15.470;2023-08-06T05:23:30;0.42;;;0.42;;
22005;SDS011;11167;46.988;15.470;2023-08-06T05:25:31;0.30;;;0.30;;
22005;SDS011;11167;46.988;15.470;2023-08-06T05:27:32;0.28;;;0.20;;
22005;SDS011;11167;46.988;15.470;2023-08-06T05:29:33;0.30;;;0.30;;
22005;SDS011;11167;46.988;15.470;2023-08-06T05:31:34;0.50;;;0.28;;
22005;SDS011;11167;46.988;15.470;2023-08-06T05:33:35;0.30;;;0.30;;
22005;SDS011;11167;46.988;15.470;2023-08-06T05:35:36;0.20;;;0.20;;
22005;SDS011;11167;46.988;15.470;2023-08-06T05:37:37;0.30;;;0.20;;
22005;SDS011;11167;46.988;15.470;2023-08-06T05:39:38;0.47;;;0.30;;
22005;SDS011;11167;46.988;15.470;2023-08-06T05:41:39;0.25;;;0.25;;
22005;SDS011;11167;46.988;15.470;2023-08-06T05:43:40;0.57;;;0.40;;
22005;SDS011;11167;46.988;15.470;2023-08-06T05:45:45;0.78;;;0.40;;
22005;SDS011;11167;46.988;15.470;2023-08-06T05:47:50;0.82;;;0.40;;
22005;SDS011;11167;46.988;15.470;2023-08-06T05:49:51;0.30;;;0.25;;
22005;SDS011;11167;46.988;15.470;2023-08-06T05:51:52;0.40;;;0.40;;
22005;SDS011;11167;46.988;15.470;2023-08-06T05:53:57;0.50;;;0.40;;
22005;SDS011;11167;46.988;15.470;2023-08-06T05:55:58;0.78;;;0.47;;
22005;SDS011;11167;46.988;15.470;2023-08-06T05:57:59;0.60;;;0.40;;
22005;SDS011;11167;46.988;15.470;2023-08-06T06:00:01;1.40;;;0.80;;
22005;SDS011;11167;46.988;15.470;2023-08-06T06:02:02;0.60;;;0.40;;
22005;SDS011;11167;46.988;15.470;2023-08-06T06:04:04;1.00;;;0.50;;
22005;SDS011;11167;46.988;15.470;2023-08-06T06:06:05;0.78;;;0.55;;
22005;SDS011;11167;46.988;15.470;2023-08-06T06:08:06;1.15;;;0.80;;
22005;SDS011;11167;46.988;15.470;2023-08-06T06:10:07;1.62;;;0.60;;
22005;SDS011;11167;46.988;15.470;2023-08-06T06:12:08;2.30;;;1.10;;
22005;SDS011;11167;46.988;15.470;2023-08-06T06:14:09;1.32;;;0.72;;
22005;SDS011;11167;46.988;15.470;2023-08-06T06:16:10;1.42;;;0.88;;
22005;SDS011;11167;46.988;15.470;2023-08-06T06:18:12;1.60;;;0.80;;
22005;SDS011;11167;46.988;15.470;2023-08-06T06:20:13;0.98;;;0.60;;
22005;SDS011;11167;46.988;15.470;2023-08-06T06:22:14;1.25;;;0.90;;
22005;SDS011;11167;46.988;15.470;2023-08-06T06:24:15;1.40;;;1.00;;
22005;SDS011;11167;46.988;15.470;2023-08-06T06:26:16;1.47;;;0.90;;
22005;SDS011;11167;46.988;15.470;2023-08-06T06:28:19;1.52;;;0.90;;
22005;SDS011;11167;46.988;15.470;2023-08-06T06:30:20;2.37;;;0.98;;
22005;SDS011;11167;46.988;15.470;2023-08-06T06:32:22;1.45;;;0.90;;
22005;SDS011;11167;46.988;15.470;2023-08-06T06:34:23;1.98;;;0.98;;
22005;SDS011;11167;46.988;15.470;2023-08-06T06:36:24;1.47;;;0.88;;
22005;SDS011;11167;46.988;15.470;2023-08-06T06:38:25;1.75;;;0.90;;
22005;SDS011;11167;46.988;15.470;2023-08-06T06:40:27;1.32;;;1.05;;
22005;SDS011;11167;46.988;15.470;2023-08-06T06:42:28;1.40;;;0.80;;
22005;SDS011;11167;46.988;15.470;2023-08-06T06:44:29;1.52;;;0.85;;
22005;SDS011;11167;46.988;15.470;2023-08-06T06:46:30;1.52;;;0.80;;
22005;SDS011;11167;46.988;15.470;2023-08-06T06:48:32;1.75;;;0.90;;
22005;SDS011;11167;46.988;15.470;2023-08-06T06:50:35;1.35;;;0.82;;
22005;SDS011;11167;46.988;15.470;2023-08-06T06:52:36;1.12;;;0.82;;
22005;SDS011;11167;46.988;15.470;2023-08-06T06:54:38;1.20;;;0.80;;
22005;SDS011;11167;46.988;15.470;2023-08-06T06:56:39;1.52;;;0.80;;
22005;SDS011;11167;46.988;15.470;2023-08-06T06:58:40;0.98;;;0.70;;
22005;SDS011;11167;46.988;15.470;2023-08-06T07:03:03;1.47;;;0.72;;
22005;SDS011;11167;46.988;15.470;2023-08-06T07:05:04;0.98;;;0.80;;
22005;SDS011;11167;46.988;15.470;2023-08-06T07:07:07;1.02;;;0.60;;
22005;SDS011;11167;46.988;15.470;2023-08-06T07:09:08;1.02;;;0.70;;
22005;SDS011;11167;46.988;15.470;2023-08-06T07:11:09;1.32;;;0.75;;
22005;SDS011;11167;46.988;15.470;2023-08-06T07:13:10;1.10;;;0.70;;
22005;SDS011;11167;46.988;15.470;2023-08-06T07:15:11;0.68;;;0.60;;
22005;SDS011;11167;46.988;15.470;2023-08-06T07:17:13;0.93;;;0.70;;
22005;SDS011;11167;46.988;15.470;2023-08-06T07:19:14;1.42;;;0.80;;
22005;SDS011;11167;46.988;15.470;2023-08-06T07:21:15;0.88;;;0.60;;
22005;SDS011;11167;46.988;15.470;2023-08-06T07:23:22;0.80;;;0.70;;
22005;SDS011;11167;46.988;15.470;2023-08-06T07:25:20;0.78;;;0.60;;
22005;SDS011;11167;46.988;15.470;2023-08-06T07:27:21;0.80;;;0.60;;
22005;SDS011;11167;46.988;15.470;2023-08-06T07:29:23;0.80;;;0.55;;
22005;SDS011;11167;46.988;15.470;2023-08-06T07:31:24;1.12;;;0.60;;
22005;SDS011;11167;46.988;15.470;2023-08-06T07:33:26;1.12;;;0.70;;
22005;SDS011;11167;46.988;15.470;2023-08-06T07:35:28;1.00;;;0.50;;
22005;SDS011;11167;46.988;15.470;2023-08-06T07:37:29;0.57;;;0.50;;
22005;SDS011;11167;46.988;15.470;2023-08-06T07:39:30;1.35;;;0.70;;
22005;SDS011;11167;46.988;15.470;2023-08-06T07:41:31;0.50;;;0.50;;
22005;SDS011;11167;46.988;15.470;2023-08-06T07:43:32;0.60;;;0.60;;
22005;SDS011;11167;46.988;15.470;2023-08-06T07:45:34;0.42;;;0.40;;
22005;SDS011;11167;46.988;15.470;2023-08-06T07:47:39;0.60;;;0.47;;
22005;SDS011;11167;46.988;15.470;2023-08-06T07:49:40;0.45;;;0.45;;
22005;SDS011;11167;46.988;15.470;2023-08-06T07:51:41;0.75;;;0.60;;
22005;SDS011;11167;46.988;15.470;2023-08-06T07:53:42;0.72;;;0.70;;
22005;SDS011;11167;46.988;15.470;2023-08-06T07:55:43;0.60;;;0.50;;
22005;SDS011;11167;46.988;15.470;2023-08-06T07:57:47;0.60;;;0.47;;
22005;SDS011;11167;46.988;15.470;2023-08-06T07:59:47;0.40;;;0.40;;
22005;SDS011;11167;46.988;15.470;2023-08-06T08:01:49;1.32;;;0.60;;
22005;SDS011;11167;46.988;15.470;2023-08-06T08:03:50;0.82;;;0.50;;
22005;SDS011;11167;46.988;15.470;2023-08-06T08:05:53;0.60;;;0.40;;
22005;SDS011;11167;46.988;15.470;2023-08-06T08:07:57;0.80;;;0.45;;
22005;SDS011;11167;46.988;15.470;2023-08-06T08:09:59;0.40;;;0.40;;
22005;SDS011;11167;46.988;15.470;2023-08-06T08:12:00;0.53;;;0.47;;
22005;SDS011;11167;46.988;15.470;2023-08-06T08:14:03;0.72;;;0.42;;
22005;SDS011;11167;46.988;15.470;2023-08-06T08:16:04;0.47;;;0.45;;
22005;SDS011;11167;46.988;15.470;2023-08-06T08:18:05;0.70;;;0.50;;
22005;SDS011;11167;46.988;15.470;2023-08-06T08:20:06;0.62;;;0.50;;
22005;SDS011;11167;46.988;15.470;2023-08-06T08:22:08;1.00;;;0.50;;
22005;SDS011;11167;46.988;15.470;2023-08-06T08:24:09;0.62;;;0.50;;
22005;SDS011;11167;46.988;15.470;2023-08-06T08:26:10;0.65;;;0.60;;
22005;SDS011;11167;46.988;15.470;2023-08-06T08:28:12;0.42;;;0.42;;
22005;SDS011;11167;46.988;15.470;2023-08-06T08:30:13;0.68;;;0.55;;
22005;SDS011;11167;46.988;15.470;2023-08-06T08:32:14;0.53;;;0.40;;
22005;SDS011;11167;46.988;15.470;2023-08-06T08:34:18;0.68;;;0.50;;
22005;SDS011;11167;46.988;15.470;2023-08-06T08:36:20;0.55;;;0.55;;
22005;SDS011;11167;46.988;15.470;2023-08-06T08:38:21;0.62;;;0.50;;
22005;SDS011;11167;46.988;15.470;2023-08-06T08:40:22;0.53;;;0.50;;
22005;SDS011;11167;46.988;15.470;2023-08-06T08:42:27;0.98;;;0.60;;
22005;SDS011;11167;46.988;15.470;2023-08-06T08:44:29;0.47;;;0.47;;
22005;SDS011;11167;46.988;15.470;2023-08-06T08:46:32;0.70;;;0.50;;
22005;SDS011;11167;46.988;15.470;2023-08-06T08:48:35;0.55;;;0.55;;
22005;SDS011;11167;46.988;15.470;2023-08-06T08:50:37;0.50;;;0.50;;
22005;SDS011;11167;46.988;15.470;2023-08-06T08:52:38;0.47;;;0.47;;
22005;SDS011;11167;46.988;15.470;2023-08-06T08:54:40;1.17;;;0.60;;
22005;SDS011;11167;46.988;15.470;2023-08-06T08:56:44;0.50;;;0.50;;
22005;SDS011;11167;46.988;15.470;2023-08-06T08:58:45;0.50;;;0.50;;
22005;SDS011;11167;46.988;15.470;2023-08-06T09:00:46;0.40;;;0.40;;
22005;SDS011;11167;46.988;15.470;2023-08-06T09:02:49;0.42;;;0.40;;
22005;SDS011;11167;46.988;15.470;2023-08-06T09:04:51;0.33;;;0.30;;
22005;SDS011;11167;46.988;15.470;2023-08-06T09:06:54;0.40;;;0.40;;
22005;SDS011;11167;46.988;15.470;2023-08-06T09:09:00;0.77;;;0.43;;
22005;SDS011;11167;46.988;15.470;2023-08-06T09:11:11;1.02;;;0.55;;
22005;SDS011;11167;46.988;15.470;2023-08-06T09:13:13;0.30;;;0.30;;
22005;SDS011;11167;46.988;15.470;2023-08-06T09:15:14;0.50;;;0.50;;
22005;SDS011;11167;46.988;15.470;2023-08-06T09:17:16;0.40;;;0.40;;
22005;SDS011;11167;46.988;15.470;2023-08-06T09:19:19;0.68;;;0.50;;
22005;SDS011;11167;46.988;15.470;2023-08-06T09:21:20;0.33;;;0.33;;
22005;SDS011;11167;46.988;15.470;2023-08-06T09:23:25;0.42;;;0.42;;
22005;SDS011;11167;46.988;15.470;2023-08-06T09:25:34;0.57;;;0.57;;
22005;SDS011;11167;46.988;15.470;2023-08-06T09:27:41;1.15;;;0.90;;
22005;SDS011;11167;46.988;15.470;2023-08-06T09:29:46;1.20;;;0.95;;
22005;SDS011;11167;46.988;15.470;2023-08-06T09:31:48;2.12;;;1.07;;
22005;SDS011;11167;46.988;15.470;2023-08-06T09:33:53;1.60;;;1.10;;
22005;SDS011;11167;46.988;15.470;2023-08-06T09:35:55;1.40;;;1.12;;
22005;SDS011;11167;46.988;15.470;2023-08-06T09:37:59;2.20;;;1.40;;
22005;SDS011;11167;46.988;15.470;2023-08-06T09:40:24;1.95;;;1.40;;
22005;SDS011;11167;46.988;15.470;2023-08-06T09:42:29;1.67;;;1.32;;
22005;SDS011;11167;46.988;15.470;2023-08-06T09:44:31;1.47;;;1.15;;
22005;SDS011;11167;46.988;15.470;2023-08-06T09:46:33;1.75;;;1.20;;
22005;SDS011;11167;46.988;15.470;2023-08-06T09:48:34;2.12;;;1.50;;
22005;SDS011;11167;46.988;15.470;2023-08-06T09:50:36;1.55;;;1.15;;
22005;SDS011;11167;46.988;15.470;2023-08-06T09:52:38;1.17;;;0.90;;
22005;SDS011;11167;46.988;15.470;2023-08-06T09:54:39;1.32;;;1.00;;
22005;SDS011;11167;46.988;15.470;2023-08-06T09:56:41;1.00;;;0.90;;
22005;SDS011;11167;46.988;15.470;2023-08-06T09:58:43;1.10;;;1.00;;
22005;SDS011;11167;46.988;15.470;2023-08-06T10:00:46;1.30;;;0.90;;
22005;SDS011;11167;46.988;15.470;2023-08-06T10:02:48;1.22;;;1.00;;
22005;SDS011;11167;46.988;15.470;2023-08-06T10:04:50;1.20;;;1.10;;
22005;SDS011;11167;46.988;15.470;2023-08-06T10:06:51;1.67;;;1.00;;
22005;SDS011;11167;46.988;15.470;2023-08-06T10:08:53;1.52;;;1.00;;
22005;SDS011;11167;46.988;15.470;2023-08-06T10:10:54;1.20;;;0.93;;
22005;SDS011;11167;46.988;15.470;2023-08-06T10:12:58;0.70;;;0.70;;
22005;SDS011;11167;46.988;15.470;2023-08-06T10:15:03;0.70;;;0.70;;
22005;SDS011;11167;46.988;15.470;2023-08-06T10:17:07;1.20;;;0.78;;
22005;SDS011;11167;46.988;15.470;2023-08-06T10:19:09;0.88;;;0.80;;
22005;SDS011;11167;46.988;15.470;2023-08-06T10:21:12;0.70;;;0.70;;
22005;SDS011;11167;46.988;15.470;2023-08-06T10:23:14;0.80;;;0.80;;
22005;SDS011;11167;46.988;15.470;2023-08-06T10:25:18;0.80;;;0.70;;
22005;SDS011;11167;46.988;15.470;2023-08-06T10:29:37;0.68;;;0.60;;
22005;SDS011;11167;46.988;15.470;2023-08-06T10:31:55;1.80;;;0.72;;
22005;SDS011;11167;46.988;15.470;2023-08-06T10:33:58;0.70;;;0.60;;
22005;SDS011;11167;46.988;15.470;2023-08-06T10:36:01;1.57;;;0.57;;
22005;SDS011;11167;46.988;15.470;2023-08-06T10:38:08;0.68;;;0.60;;
22005;SDS011;11167;46.988;15.470;2023-08-06T10:40:11;0.70;;;0.70;;
22005;SDS011;11167;46.988;15.470;2023-08-06T10:42:21;0.65;;;0.65;;
22005;SDS011;11167;46.988;15.470;2023-08-06T10:44:25;0.62;;;0.42;;
22005;SDS011;11167;46.988;15.470;2023-08-06T10:46:28;0.60;;;0.60;;
22005;SDS011;11167;46.988;15.470;2023-08-06T10:48:36;0.60;;;0.60;;
22005;SDS011;11167;46.988;15.470;2023-08-06T10:50:39;0.70;;;0.60;;
22005;SDS011;11167;46.988;15.470;2023-08-06T10:52:40;0.50;;;0.50;;
22005;SDS011;11167;46.988;15.470;2023-08-06T10:54:41;2.55;;;0.50;;
22005;SDS011;11167;46.988;15.470;2023-08-06T10:56:42;0.42;;;0.42;;
22005;SDS011;11167;46.988;15.470;2023-08-06T10:58:45;0.72;;;0.70;;
22005;SDS011;11167;46.988;15.470;2023-08-06T11:00:47;0.68;;;0.65;;
22005;SDS011;11167;46.988;15.470;2023-08-06T11:02:48;0.82;;;0.60;;
22005;SDS011;11167;46.988;15.470;2023-08-06T11:04:50;0.62;;;0.50;;
22005;SDS011;11167;46.988;15.470;2023-08-06T11:06:54;0.72;;;0.60;;
22005;SDS011;11167;46.988;15.470;2023-08-06T11:08:55;0.72;;;0.57;;
22005;SDS011;11167;46.988;15.470;2023-08-06T11:10:56;0.35;;;0.35;;
22005;SDS011;11167;46.988;15.470;2023-08-06T11:13:01;6.80;;;0.70;;
22005;SDS011;11167;46.988;15.470;2023-08-06T11:15:03;0.85;;;0.57;;
22005;SDS011;11167;46.988;15.470;2023-08-06T11:17:05;1.25;;;0.60;;
22005;SDS011;11167;46.988;15.470;2023-08-06T11:19:07;0.60;;;0.50;;
22005;SDS011;11167;46.988;15.470;2023-08-06T11:21:09;0.85;;;0.60;;
22005;SDS011;11167;46.988;15.470;2023-08-06T11:23:10;0.93;;;0.50;;
22005;SDS011;11167;46.988;15.470;2023-08-06T11:25:11;0.50;;;0.50;;
22005;SDS011;11167;46.988;15.470;2023-08-06T11:27:13;0.60;;;0.60;;
22005;SDS011;11167;46.988;15.470;2023-08-06T11:29:15;0.50;;;0.37;;
22005;SDS011;11167;46.988;15.470;2023-08-06T11:31:18;0.60;;;0.60;;
22005;SDS011;11167;46.988;15.470;2023-08-06T11:33:23;0.50;;;0.50;;
22005;SDS011;11167;46.988;15.470;2023-08-06T11:35:26;0.40;;;0.40;;
22005;SDS011;11167;46.988;15.470;2023-08-06T11:37:28;0.90;;;0.50;;
22005;SDS011;11167;46.988;15.470;2023-08-06T11:39:29;0.45;;;0.45;;
22005;SDS011;11167;46.988;15.470;2023-08-06T11:41:31;0.82;;;0.57;;
22005;SDS011;11167;46.988;15.470;2023-08-06T11:43:33;0.68;;;0.45;;
22005;SDS011;11167;46.988;15.470;2023-08-06T11:45:37;0.40;;;0.40;;
22005;SDS011;11167;46.988;15.470;2023-08-06T11:47:38;0.40;;;0.40;;
22005;SDS011;11167;46.988;15.470;2023-08-06T11:51:47;0.60;;;0.50;;
22005;SDS011;11167;46.988;15.470;2023-08-06T11:53:49;0.40;;;0.40;;
22005;SDS011;11167;46.988;15.470;2023-08-06T11:55:50;0.40;;;0.40;;
22005;SDS011;11167;46.988;15.470;2023-08-06T11:57:52;0.57;;;0.50;;
22005;SDS011;11167;46.988;15.470;2023-08-06T11:59:53;0.50;;;0.50;;
22005;SDS011;11167;46.988;15.470;2023-08-06T12:01:54;0.50;;;0.50;;
22005;SDS011;11167;46.988;15.470;2023-08-06T12:04:02;1.07;;;0.50;;
22005;SDS011;11167;46.988;15.470;2023-08-06T12:06:01;0.30;;;0.30;;
22005;SDS011;11167;46.988;15.470;2023-08-06T12:08:02;0.57;;;0.35;;
22005;SDS011;11167;46.988;15.470;2023-08-06T12:10:05;0.40;;;0.40;;
22005;SDS011;11167;46.988;15.470;2023-08-06T12:12:07;0.40;;;0.40;;